sensor_id;sensor_type;location;lat;lon;timestamp;temperature;humidity
48686;DHT22;34485;51.536;3.816;2024-03-29T00:53:16;9.90;99.90
48686;DHT22;34485;51.536;3.816;2024-03-29T00:58:11;9.80;99.90
48686;DHT22;34485;51.536;3.816;2024-03-29T01:00:36;9.80;99.90
48686;DHT22;34485;51.536;3.816;2024-03-29T01:03:02;9.70;99.90
48686;DHT22;34485;51.536;3.816;2024-03-29T01:05:28;9.70;99.90
48686;DHT22;34485;51.536;3.816;2024-03-29T01:07:53;9.70;99.90
48686;DHT22;34485;51.536;3.816;2024-03-29T01:10:19;9.70;99.90
48686;DHT22;34485;51.536;3.816;2024-03-29T01:12:47;9.70;99.90
48686;DHT22;34485;51.536;3.816;2024-03-29T01:15:13;9.70;99.90
48686;DHT22;34485;51.536;3.816;2024-03-29T01:17:38;9.70;99.90
48686;DHT22;34485;51.536;3.816;2024-03-29T01:20:04;9.60;99.90
48686;DHT22;34485;51.536;3.816;2024-03-29T01:22:30;9.60;99.90
48686;DHT22;34485;51.536;3.816;2024-03-29T01:27:25;9.60;99.90
48686;DHT22;34485;51.536;3.816;2024-03-29T01:29:50;9.60;99.90
48686;DHT22;34485;51.536;3.816;2024-03-29T01:32:16;9.60;99.90
48686;DHT22;34485;51.536;3.816;2024-03-29T01:39:36;9.60;99.90
48686;DHT22;34485;51.536;3.816;2024-03-29T04:16:27;9.50;99.90
48686;DHT22;34485;51.536;3.816;2024-03-29T04:18:53;9.30;99.90
48686;DHT22;34485;51.536;3.816;2024-03-29T04:21:19;9.30;99.90
48686;DHT22;34485;51.536;3.816;2024-03-29T04:23:44;9.40;99.90
48686;DHT22;34485;51.536;3.816;2024-03-29T04:26:10;9.30;99.90
48686;DHT22;34485;51.536;3.816;2024-03-29T04:28:36;9.20;99.90
48686;DHT22;34485;51.536;3.816;2024-03-29T04:31:02;9.20;99.90
48686;DHT22;34485;51.536;3.816;2024-03-29T04:33:28;9.10;99.90
48686;DHT22;34485;51.536;3.816;2024-03-29T04:36:02;9.10;99.90
48686;DHT22;34485;51.536;3.816;2024-03-29T04:38:28;9.10;99.90
48686;DHT22;34485;51.536;3.816;2024-03-29T04:40:55;9.10;99.90
48686;DHT22;34485;51.536;3.816;2024-03-29T04:43:23;9.00;99.90
48686;DHT22;34485;51.536;3.816;2024-03-29T04:45:49;9.00;99.90
48686;DHT22;34485;51.536;3.816;2024-03-29T04:48:15;8.90;99.90
48686;DHT22;34485;51.536;3.816;2024-03-29T04:50:41;8.90;99.90
48686;DHT22;34485;51.536;3.816;2024-03-29T04:53:07;8.80;99.90
48686;DHT22;34485;51.536;3.816;2024-03-29T04:55:34;8.80;99.90
48686;DHT22;34485;51.536;3.816;2024-03-29T04:58:00;8.70;99.90
48686;DHT22;34485;51.536;3.816;2024-03-29T05:00:26;8.70;99.90
48686;DHT22;34485;51.536;3.816;2024-03-29T05:02:52;8.60;99.90
48686;DHT22;34485;51.536;3.816;2024-03-29T05:05:17;8.60;99.90
48686;DHT22;34485;51.536;3.816;2024-03-29T05:07:43;8.50;99.90
48686;DHT22;34485;51.536;3.816;2024-03-29T05:10:09;8.40;99.90
48686;DHT22;34485;51.536;3.816;2024-03-29T05:12:38;8.50;99.90
48686;DHT22;34485;51.536;3.816;2024-03-29T05:15:04;8.50;99.90
48686;DHT22;34485;51.536;3.816;2024-03-29T05:17:30;8.50;99.90
48686;DHT22;34485;51.536;3.816;2024-03-29T05:19:56;8.40;99.90
48686;DHT22;34485;51.536;3.816;2024-03-29T05:22:22;8.40;99.90
48686;DHT22;34485;51.536;3.816;2024-03-29T05:24:47;8.40;99.90
48686;DHT22;34485;51.536;3.816;2024-03-29T05:27:13;8.30;99.90
48686;DHT22;34485;51.536;3.816;2024-03-29T05:29:39;8.30;99.90
48686;DHT22;34485;51.536;3.816;2024-03-29T05:32:06;8.20;99.90
48686;DHT22;34485;51.536;3.816;2024-03-29T05:34:32;8.20;99.90
48686;DHT22;34485;51.536;3.816;2024-03-29T05:36:58;8.10;99.90
48686;DHT22;34485;51.536;3.816;2024-03-29T05:39:24;8.10;99.90
48686;DHT22;34485;51.536;3.816;2024-03-29T05:41:49;8.10;99.90
48686;DHT22;34485;51.536;3.816;2024-03-29T05:44:15;8.00;99.90
48686;DHT22;34485;51.536;3.816;2024-03-29T05:46:42;7.90;99.90
48686;DHT22;34485;51.536;3.816;2024-03-29T05:49:08;8.00;99.90
48686;DHT22;34485;51.536;3.816;2024-03-29T05:51:34;7.90;99.90
48686;DHT22;34485;51.536;3.816;2024-03-29T05:54:00;7.90;99.90
48686;DHT22;34485;51.536;3.816;2024-03-29T05:56:26;8.00;99.90
48686;DHT22;34485;51.536;3.816;2024-03-29T05:58:51;8.00;99.90
48686;DHT22;34485;51.536;3.816;2024-03-29T06:01:17;8.00;99.90
48686;DHT22;34485;51.536;3.816;2024-03-29T06:03:43;8.10;99.90
48686;DHT22;34485;51.536;3.816;2024-03-29T06:24:09;8.40;99.90
48686;DHT22;34485;51.536;3.816;2024-03-29T06:26:38;8.40;99.90
48686;DHT22;34485;51.536;3.816;2024-03-29T06:29:04;8.50;99.90
48686;DHT22;34485;51.536;3.816;2024-03-29T06:31:30;8.50;99.90
48686;DHT22;34485;51.536;3.816;2024-03-29T06:33:59;8.50;99.90
48686;DHT22;34485;51.536;3.816;2024-03-29T06:36:25;8.50;99.90
48686;DHT22;34485;51.536;3.816;2024-03-29T06:38:51;8.50;99.90
48686;DHT22;34485;51.536;3.816;2024-03-29T06:58:27;8.60;99.90
48686;DHT22;34485;51.536;3.816;2024-03-29T07:00:52;8.60;99.90
48686;DHT22;34485;51.536;3.816;2024-03-29T07:03:18;8.80;99.90
48686;DHT22;34485;51.536;3.816;2024-03-29T07:05:48;8.90;99.90
48686;DHT22;34485;51.536;3.816;2024-03-29T07:08:13;8.90;99.90
48686;DHT22;34485;51.536;3.816;2024-03-29T07:10:39;9.00;99.90
48686;DHT22;34485;51.536;3.816;2024-03-29T07:13:06;9.00;99.90
48686;DHT22;34485;51.536;3.816;2024-03-29T07:17:57;9.00;99.90
48686;DHT22;34485;51.536;3.816;2024-03-29T07:20:25;9.00;99.90
48686;DHT22;34485;51.536;3.816;2024-03-29T07:22:51;9.10;99.90
48686;DHT22;34485;51.536;3.816;2024-03-29T07:54:34;9.40;99.90
48686;DHT22;34485;51.536;3.816;2024-03-29T07:59:28;9.80;99.90
48686;DHT22;34485;51.536;3.816;2024-03-29T08:01:54;9.90;99.90
48686;DHT22;34485;51.536;3.816;2024-03-29T08:04:23;9.90;99.90
48686;DHT22;34485;51.536;3.816;2024-03-29T08:06:52;9.90;99.90
48686;DHT22;34485;51.536;3.816;2024-03-29T08:09:17;10.10;99.90
48686;DHT22;34485;51.536;3.816;2024-03-29T08:11:43;10.00;99.90
48686;DHT22;34485;51.536;3.816;2024-03-29T08:14:09;10.00;99.90
48686;DHT22;34485;51.536;3.816;2024-03-29T08:16:34;10.00;99.90
48686;DHT22;34485;51.536;3.816;2024-03-29T08:19:00;10.00;99.90
48686;DHT22;34485;51.536;3.816;2024-03-29T08:21:26;10.20;99.90
48686;DHT22;34485;51.536;3.816;2024-03-29T08:23:55;10.40;99.90
48686;DHT22;34485;51.536;3.816;2024-03-29T08:26:24;10.50;99.90
48686;DHT22;34485;51.536;3.816;2024-03-29T08:28:50;10.50;99.90
48686;DHT22;34485;51.536;3.816;2024-03-29T08:31:16;10.50;99.90
48686;DHT22;34485;51.536;3.816;2024-03-29T08:33:42;10.70;99.90
48686;DHT22;34485;51.536;3.816;2024-03-29T08:36:08;11.00;99.90
48686;DHT22;34485;51.536;3.816;2024-03-29T08:38:36;11.20;99.90
48686;DHT22;34485;51.536;3.816;2024-03-29T08:43:29;12.70;99.90
48686;DHT22;34485;51.536;3.816;2024-03-29T08:45:54;13.40;99.90
48686;DHT22;34485;51.536;3.816;2024-03-29T08:50:46;14.10;98.20
48686;DHT22;34485;51.536;3.816;2024-03-29T08:53:12;14.20;97.40
48686;DHT22;34485;51.536;3.816;2024-03-29T08:55:37;14.40;98.20
48686;DHT22;34485;51.536;3.816;2024-03-29T08:58:05;14.90;97.50
48686;DHT22;34485;51.536;3.816;2024-03-29T09:00:31;15.10;93.60
48686;DHT22;34485;51.536;3.816;2024-03-29T09:02:57;15.30;95.50
48686;DHT22;34485;51.536;3.816;2024-03-29T09:05:23;15.50;94.00
48686;DHT22;34485;51.536;3.816;2024-03-29T09:07:49;15.30;91.80
48686;DHT22;34485;51.536;3.816;2024-03-29T09:10:15;14.40;94.20
48686;DHT22;34485;51.536;3.816;2024-03-29T09:12:41;13.50;97.50
48686;DHT22;34485;51.536;3.816;2024-03-29T09:15:06;13.00;99.20
48686;DHT22;34485;51.536;3.816;2024-03-29T09:17:48;12.70;99.90
48686;DHT22;34485;51.536;3.816;2024-03-29T09:20:14;12.70;99.90
48686;DHT22;34485;51.536;3.816;2024-03-29T09:22:39;13.10;99.90
48686;DHT22;34485;51.536;3.816;2024-03-29T09:25:06;13.20;99.90
48686;DHT22;34485;51.536;3.816;2024-03-29T09:27:32;13.00;99.90
48686;DHT22;34485;51.536;3.816;2024-03-29T09:30:02;12.80;99.90
48686;DHT22;34485;51.536;3.816;2024-03-29T09:32:29;13.00;99.90
48686;DHT22;34485;51.536;3.816;2024-03-29T09:34:55;13.00;99.90
48686;DHT22;34485;51.536;3.816;2024-03-29T09:37:21;13.30;99.90
48686;DHT22;34485;51.536;3.816;2024-03-29T09:39:47;14.00;98.60
48686;DHT22;34485;51.536;3.816;2024-03-29T09:42:16;14.60;96.50
48686;DHT22;34485;51.536;3.816;2024-03-29T09:44:44;15.30;94.50
48686;DHT22;34485;51.536;3.816;2024-03-29T09:47:11;15.60;91.30
48686;DHT22;34485;51.536;3.816;2024-03-29T09:49:40;15.30;94.30
48686;DHT22;34485;51.536;3.816;2024-03-29T09:52:09;15.20;93.50
48686;DHT22;34485;51.536;3.816;2024-03-29T09:54:35;14.90;93.30
48686;DHT22;34485;51.536;3.816;2024-03-29T09:57:01;14.60;95.90
48686;DHT22;34485;51.536;3.816;2024-03-29T09:59:28;14.80;94.90
48686;DHT22;34485;51.536;3.816;2024-03-29T10:01:55;14.60;93.70
48686;DHT22;34485;51.536;3.816;2024-03-29T10:04:23;14.70;94.20
48686;DHT22;34485;51.536;3.816;2024-03-29T10:06:49;14.70;95.30
48686;DHT22;34485;51.536;3.816;2024-03-29T10:11:46;15.00;94.50
48686;DHT22;34485;51.536;3.816;2024-03-29T10:14:12;15.60;88.80
48686;DHT22;34485;51.536;3.816;2024-03-29T10:16:38;15.50;90.00
48686;DHT22;34485;51.536;3.816;2024-03-29T10:19:04;15.40;88.90
48686;DHT22;34485;51.536;3.816;2024-03-29T10:21:32;15.20;92.30
48686;DHT22;34485;51.536;3.816;2024-03-29T10:23:57;15.20;93.70
48686;DHT22;34485;51.536;3.816;2024-03-29T10:26:23;15.40;91.20
48686;DHT22;34485;51.536;3.816;2024-03-29T10:28:50;15.60;91.90
48686;DHT22;34485;51.536;3.816;2024-03-29T10:31:17;16.00;92.70
48686;DHT22;34485;51.536;3.816;2024-03-29T10:33:43;16.20;85.80
48686;DHT22;34485;51.536;3.816;2024-03-29T10:36:10;15.80;89.40
48686;DHT22;34485;51.536;3.816;2024-03-29T10:38:38;15.40;91.20
48686;DHT22;34485;51.536;3.816;2024-03-29T10:41:04;14.80;93.30
48686;DHT22;34485;51.536;3.816;2024-03-29T10:43:32;14.90;94.50
48686;DHT22;34485;51.536;3.816;2024-03-29T10:46:00;14.80;94.30
48686;DHT22;34485;51.536;3.816;2024-03-29T10:48:30;15.30;93.10
48686;DHT22;34485;51.536;3.816;2024-03-29T10:50:58;15.70;91.80
48686;DHT22;34485;51.536;3.816;2024-03-29T10:53:25;15.80;89.00
48686;DHT22;34485;51.536;3.816;2024-03-29T10:55:57;15.80;90.50
48686;DHT22;34485;51.536;3.816;2024-03-29T10:58:26;16.20;91.20
48686;DHT22;34485;51.536;3.816;2024-03-29T11:00:57;16.40;89.80
48686;DHT22;34485;51.536;3.816;2024-03-29T11:03:37;16.30;89.00
48686;DHT22;34485;51.536;3.816;2024-03-29T11:06:05;16.10;87.70
48686;DHT22;34485;51.536;3.816;2024-03-29T11:08:36;15.90;86.70
48686;DHT22;34485;51.536;3.816;2024-03-29T11:11:10;15.70;86.70
48686;DHT22;34485;51.536;3.816;2024-03-29T11:14:00;15.90;93.00
48686;DHT22;34485;51.536;3.816;2024-03-29T11:16:28;16.20;87.20
48686;DHT22;34485;51.536;3.816;2024-03-29T11:18:54;16.60;86.50
48686;DHT22;34485;51.536;3.816;2024-03-29T11:21:20;16.40;80.30
48686;DHT22;34485;51.536;3.816;2024-03-29T11:23:50;16.30;81.40
48686;DHT22;34485;51.536;3.816;2024-03-29T11:26:16;16.30;85.70
48686;DHT22;34485;51.536;3.816;2024-03-29T11:28:48;16.50;87.70
48686;DHT22;34485;51.536;3.816;2024-03-29T11:31:15;16.50;83.20
48686;DHT22;34485;51.536;3.816;2024-03-29T11:36:14;16.50;78.90
48686;DHT22;34485;51.536;3.816;2024-03-29T11:38:42;16.30;78.90
48686;DHT22;34485;51.536;3.816;2024-03-29T11:41:25;16.00;84.50
48686;DHT22;34485;51.536;3.816;2024-03-29T11:43:56;16.00;84.60
48686;DHT22;34485;51.536;3.816;2024-03-29T11:46:23;16.00;83.40
48686;DHT22;34485;51.536;3.816;2024-03-29T11:48:49;16.30;90.00
48686;DHT22;34485;51.536;3.816;2024-03-29T11:51:21;15.90;83.40
48686;DHT22;34485;51.536;3.816;2024-03-29T11:53:49;15.70;85.40
48686;DHT22;34485;51.536;3.816;2024-03-29T11:56:18;15.30;84.40
48686;DHT22;34485;51.536;3.816;2024-03-29T11:58:45;15.30;86.40
48686;DHT22;34485;51.536;3.816;2024-03-29T12:01:11;15.50;87.00
48686;DHT22;34485;51.536;3.816;2024-03-29T12:03:40;15.70;92.00
48686;DHT22;34485;51.536;3.816;2024-03-29T12:06:07;15.90;86.80
48686;DHT22;34485;51.536;3.816;2024-03-29T12:08:39;16.10;84.40
48686;DHT22;34485;51.536;3.816;2024-03-29T12:13:33;16.60;99.90
48686;DHT22;34485;51.536;3.816;2024-03-29T12:16:00;16.30;79.10
48686;DHT22;34485;51.536;3.816;2024-03-29T12:18:26;16.10;81.30
48686;DHT22;34485;51.536;3.816;2024-03-29T12:20:59;16.00;83.10
48686;DHT22;34485;51.536;3.816;2024-03-29T12:23:25;16.00;83.20
48686;DHT22;34485;51.536;3.816;2024-03-29T12:25:55;16.20;81.70
48686;DHT22;34485;51.536;3.816;2024-03-29T12:28:23;16.10;82.40
48686;DHT22;34485;51.536;3.816;2024-03-29T12:30:48;16.10;75.30
48686;DHT22;34485;51.536;3.816;2024-03-29T12:33:17;16.00;81.20
48686;DHT22;34485;51.536;3.816;2024-03-29T12:35:46;16.00;78.60
48686;DHT22;34485;51.536;3.816;2024-03-29T12:38:15;15.70;78.70
48686;DHT22;34485;51.536;3.816;2024-03-29T12:40:42;15.90;82.70
48686;DHT22;34485;51.536;3.816;2024-03-29T12:43:14;15.80;82.30
48686;DHT22;34485;51.536;3.816;2024-03-29T12:45:41;15.60;79.70
48686;DHT22;34485;51.536;3.816;2024-03-29T12:48:20;15.50;83.10
48686;DHT22;34485;51.536;3.816;2024-03-29T12:50:47;15.50;80.40
48686;DHT22;34485;51.536;3.816;2024-03-29T12:53:14;15.30;79.50
48686;DHT22;34485;51.536;3.816;2024-03-29T12:55:42;15.40;86.80
48686;DHT22;34485;51.536;3.816;2024-03-29T12:58:12;15.50;85.50
48686;DHT22;34485;51.536;3.816;2024-03-29T13:00:39;15.70;85.90
48686;DHT22;34485;51.536;3.816;2024-03-29T13:03:05;15.60;80.80
48686;DHT22;34485;51.536;3.816;2024-03-29T13:05:32;15.50;80.80
48686;DHT22;34485;51.536;3.816;2024-03-29T13:08:03;15.60;83.20
48686;DHT22;34485;51.536;3.816;2024-03-29T13:10:30;15.50;83.40
48686;DHT22;34485;51.536;3.816;2024-03-29T13:12:56;15.40;82.70
48686;DHT22;34485;51.536;3.816;2024-03-29T13:15:23;15.60;86.50
48686;DHT22;34485;51.536;3.816;2024-03-29T13:17:51;15.60;81.90
48686;DHT22;34485;51.536;3.816;2024-03-29T13:20:17;15.70;83.30
48686;DHT22;34485;51.536;3.816;2024-03-29T13:22:45;15.60;78.90
48686;DHT22;34485;51.536;3.816;2024-03-29T13:25:18;15.70;81.40
48686;DHT22;34485;51.536;3.816;2024-03-29T13:27:46;15.70;79.40
48686;DHT22;34485;51.536;3.816;2024-03-29T13:30:13;15.80;81.60
48686;DHT22;34485;51.536;3.816;2024-03-29T13:32:40;15.90;76.80
48686;DHT22;34485;51.536;3.816;2024-03-29T13:35:07;15.90;77.40
48686;DHT22;34485;51.536;3.816;2024-03-29T13:37:43;15.90;75.60
48686;DHT22;34485;51.536;3.816;2024-03-29T13:40:11;15.90;77.50
48686;DHT22;34485;51.536;3.816;2024-03-29T13:42:38;15.90;80.00
48686;DHT22;34485;51.536;3.816;2024-03-29T13:45:04;16.00;74.80
48686;DHT22;34485;51.536;3.816;2024-03-29T13:47:33;16.00;81.00
48686;DHT22;34485;51.536;3.816;2024-03-29T13:50:00;16.00;79.00
48686;DHT22;34485;51.536;3.816;2024-03-29T13:52:25;15.90;76.00
48686;DHT22;34485;51.536;3.816;2024-03-29T13:54:53;16.00;78.50
48686;DHT22;34485;51.536;3.816;2024-03-29T13:57:19;16.00;77.20
48686;DHT22;34485;51.536;3.816;2024-03-29T13:59:45;16.10;74.70
48686;DHT22;34485;51.536;3.816;2024-03-29T14:02:15;16.10;78.20
48686;DHT22;34485;51.536;3.816;2024-03-29T14:04:42;16.00;81.30
48686;DHT22;34485;51.536;3.816;2024-03-29T14:07:13;15.90;80.20
48686;DHT22;34485;51.536;3.816;2024-03-29T14:09:42;16.10;79.60
48686;DHT22;34485;51.536;3.816;2024-03-29T14:12:08;16.20;79.90
48686;DHT22;34485;51.536;3.816;2024-03-29T14:14:35;16.00;71.50
48686;DHT22;34485;51.536;3.816;2024-03-29T14:17:01;15.90;65.80
48686;DHT22;34485;51.536;3.816;2024-03-29T14:19:33;15.90;76.60
48686;DHT22;34485;51.536;3.816;2024-03-29T14:22:09;15.90;75.10
48686;DHT22;34485;51.536;3.816;2024-03-29T14:24:35;15.90;78.00
48686;DHT22;34485;51.536;3.816;2024-03-29T14:27:04;15.80;74.20
48686;DHT22;34485;51.536;3.816;2024-03-29T14:29:34;15.60;77.60
48686;DHT22;34485;51.536;3.816;2024-03-29T14:32:00;15.50;85.80
48686;DHT22;34485;51.536;3.816;2024-03-29T14:34:27;15.50;78.70
48686;DHT22;34485;51.536;3.816;2024-03-29T14:36:53;15.40;79.50
48686;DHT22;34485;51.536;3.816;2024-03-29T14:39:19;15.40;82.00
48686;DHT22;34485;51.536;3.816;2024-03-29T14:41:49;15.40;82.30
48686;DHT22;34485;51.536;3.816;2024-03-29T14:44:17;15.40;84.90
48686;DHT22;34485;51.536;3.816;2024-03-29T14:46:44;15.40;83.70
48686;DHT22;34485;51.536;3.816;2024-03-29T14:49:10;15.30;81.40
48686;DHT22;34485;51.536;3.816;2024-03-29T14:51:37;15.30;82.50
48686;DHT22;34485;51.536;3.816;2024-03-29T14:54:03;15.30;82.20
48686;DHT22;34485;51.536;3.816;2024-03-29T14:56:31;15.20;80.00
48686;DHT22;34485;51.536;3.816;2024-03-29T14:59:00;15.20;82.70
48686;DHT22;34485;51.536;3.816;2024-03-29T15:01:26;15.10;86.50
48686;DHT22;34485;51.536;3.816;2024-03-29T15:03:52;15.20;84.30
48686;DHT22;34485;51.536;3.816;2024-03-29T15:06:19;15.20;81.90
48686;DHT22;34485;51.536;3.816;2024-03-29T15:08:46;15.20;81.90
48686;DHT22;34485;51.536;3.816;2024-03-29T15:11:11;15.20;85.60
48686;DHT22;34485;51.536;3.816;2024-03-29T15:13:37;15.20;85.70
48686;DHT22;34485;51.536;3.816;2024-03-29T15:16:03;15.20;88.60
48686;DHT22;34485;51.536;3.816;2024-03-29T15:18:29;15.10;87.30
48686;DHT22;34485;51.536;3.816;2024-03-29T15:21:01;15.00;85.60
48686;DHT22;34485;51.536;3.816;2024-03-29T15:23:28;15.00;90.30
48686;DHT22;34485;51.536;3.816;2024-03-29T15:25:55;15.00;89.20
48686;DHT22;34485;51.536;3.816;2024-03-29T15:28:22;15.10;89.20
48686;DHT22;34485;51.536;3.816;2024-03-29T15:31:20;15.20;90.30
48686;DHT22;34485;51.536;3.816;2024-03-29T15:33:51;15.40;85.00
48686;DHT22;34485;51.536;3.816;2024-03-29T15:36:17;15.50;86.80
48686;DHT22;34485;51.536;3.816;2024-03-29T15:38:43;15.50;85.60
48686;DHT22;34485;51.536;3.816;2024-03-29T15:41:10;15.40;85.10
48686;DHT22;34485;51.536;3.816;2024-03-29T15:46:04;15.10;86.20
48686;DHT22;34485;51.536;3.816;2024-03-29T15:48:30;15.10;90.10
48686;DHT22;34485;51.536;3.816;2024-03-29T15:50:55;15.00;89.70
48686;DHT22;34485;51.536;3.816;2024-03-29T15:53:21;15.00;89.50
48686;DHT22;34485;51.536;3.816;2024-03-29T15:55:47;14.80;88.30
48686;DHT22;34485;51.536;3.816;2024-03-29T15:58:14;14.80;90.20
48686;DHT22;34485;51.536;3.816;2024-03-29T16:00:40;14.70;89.40
48686;DHT22;34485;51.536;3.816;2024-03-29T16:03:13;14.70;90.20
48686;DHT22;34485;51.536;3.816;2024-03-29T16:05:43;14.70;89.40
48686;DHT22;34485;51.536;3.816;2024-03-29T16:08:10;14.70;89.80
48686;DHT22;34485;51.536;3.816;2024-03-29T16:11:05;14.60;90.80
48686;DHT22;34485;51.536;3.816;2024-03-29T16:13:32;14.50;90.70
48686;DHT22;34485;51.536;3.816;2024-03-29T16:16:03;14.40;91.10
48686;DHT22;34485;51.536;3.816;2024-03-29T16:18:29;14.40;90.80
48686;DHT22;34485;51.536;3.816;2024-03-29T16:20:57;14.40;90.60
48686;DHT22;34485;51.536;3.816;2024-03-29T16:23:24;14.30;88.60
48686;DHT22;34485;51.536;3.816;2024-03-29T16:25:50;14.30;90.30
48686;DHT22;34485;51.536;3.816;2024-03-29T16:28:21;14.30;90.00
48686;DHT22;34485;51.536;3.816;2024-03-29T16:30:50;14.30;91.00
48686;DHT22;34485;51.536;3.816;2024-03-29T16:33:17;14.20;92.00
48686;DHT22;34485;51.536;3.816;2024-03-29T16:35:43;14.20;91.00
48686;DHT22;34485;51.536;3.816;2024-03-29T16:38:11;14.20;90.80
48686;DHT22;34485;51.536;3.816;2024-03-29T16:40:37;14.20;90.70
48686;DHT22;34485;51.536;3.816;2024-03-29T16:43:04;14.20;89.30
48686;DHT22;34485;51.536;3.816;2024-03-29T16:45:30;14.20;91.70
48686;DHT22;34485;51.536;3.816;2024-03-29T16:47:56;14.30;90.80
48686;DHT22;34485;51.536;3.816;2024-03-29T16:50:22;14.30;90.40
48686;DHT22;34485;51.536;3.816;2024-03-29T16:52:48;14.30;90.80
48686;DHT22;34485;51.536;3.816;2024-03-29T16:55:13;14.30;90.20
48686;DHT22;34485;51.536;3.816;2024-03-29T16:57:39;14.30;91.00
48686;DHT22;34485;51.536;3.816;2024-03-29T17:00:08;14.30;90.70
48686;DHT22;34485;51.536;3.816;2024-03-29T17:02:37;14.20;89.80
48686;DHT22;34485;51.536;3.816;2024-03-29T17:05:04;14.20;90.70
48686;DHT22;34485;51.536;3.816;2024-03-29T17:07:31;14.10;91.50
48686;DHT22;34485;51.536;3.816;2024-03-29T17:09:56;14.10;92.10
48686;DHT22;34485;51.536;3.816;2024-03-29T17:12:22;14.00;91.90
48686;DHT22;34485;51.536;3.816;2024-03-29T17:14:50;14.00;92.20
48686;DHT22;34485;51.536;3.816;2024-03-29T17:17:16;13.90;93.50
48686;DHT22;34485;51.536;3.816;2024-03-29T17:19:41;13.90;93.70
48686;DHT22;34485;51.536;3.816;2024-03-29T17:22:08;13.80;93.80
48686;DHT22;34485;51.536;3.816;2024-03-29T17:24:33;13.80;94.60
48686;DHT22;34485;51.536;3.816;2024-03-29T17:26:59;13.70;94.50
48686;DHT22;34485;51.536;3.816;2024-03-29T17:29:25;13.70;94.90
48686;DHT22;34485;51.536;3.816;2024-03-29T17:31:51;13.70;95.40
48686;DHT22;34485;51.536;3.816;2024-03-29T17:34:19;13.60;95.00
48686;DHT22;34485;51.536;3.816;2024-03-29T17:36:47;13.60;95.20
48686;DHT22;34485;51.536;3.816;2024-03-29T17:39:13;13.60;95.50
48686;DHT22;34485;51.536;3.816;2024-03-29T17:41:39;13.50;95.90
48686;DHT22;34485;51.536;3.816;2024-03-29T17:44:05;13.50;96.10
48686;DHT22;34485;51.536;3.816;2024-03-29T17:46:31;13.50;96.10
48686;DHT22;34485;51.536;3.816;2024-03-29T17:48:57;13.40;96.10
48686;DHT22;34485;51.536;3.816;2024-03-29T17:51:23;13.40;96.50
48686;DHT22;34485;51.536;3.816;2024-03-29T17:53:48;13.30;97.20
48686;DHT22;34485;51.536;3.816;2024-03-29T17:56:14;13.30;97.00
48686;DHT22;34485;51.536;3.816;2024-03-29T17:58:40;13.30;97.10
48686;DHT22;34485;51.536;3.816;2024-03-29T18:01:07;13.30;97.00
48686;DHT22;34485;51.536;3.816;2024-03-29T18:03:32;13.40;99.90
48686;DHT22;34485;51.536;3.816;2024-03-29T18:05:58;13.30;96.90
48686;DHT22;34485;51.536;3.816;2024-03-29T18:08:24;13.20;96.20
48686;DHT22;34485;51.536;3.816;2024-03-29T18:10:49;13.30;96.70
48686;DHT22;34485;51.536;3.816;2024-03-29T18:13:15;13.20;96.90
48686;DHT22;34485;51.536;3.816;2024-03-29T18:15:46;13.20;96.70
48686;DHT22;34485;51.536;3.816;2024-03-29T18:18:12;13.20;97.10
48686;DHT22;34485;51.536;3.816;2024-03-29T18:20:38;13.20;97.00
48686;DHT22;34485;51.536;3.816;2024-03-29T18:23:04;13.10;97.60
48686;DHT22;34485;51.536;3.816;2024-03-29T18:25:34;13.10;97.90
48686;DHT22;34485;51.536;3.816;2024-03-29T18:30:26;13.10;99.90
48686;DHT22;34485;51.536;3.816;2024-03-29T18:32:52;13.00;98.30
48686;DHT22;34485;51.536;3.816;2024-03-29T18:35:18;13.00;98.90
48686;DHT22;34485;51.536;3.816;2024-03-29T18:37:44;12.90;99.10
48686;DHT22;34485;51.536;3.816;2024-03-29T18:40:12;12.90;99.10
48686;DHT22;34485;51.536;3.816;2024-03-29T18:42:39;12.90;99.70
48686;DHT22;34485;51.536;3.816;2024-03-29T18:45:05;12.90;99.70
48686;DHT22;34485;51.536;3.816;2024-03-29T18:47:34;12.80;99.90
48686;DHT22;34485;51.536;3.816;2024-03-29T18:49:59;12.70;99.90
48686;DHT22;34485;51.536;3.816;2024-03-29T18:52:28;12.70;99.90
48686;DHT22;34485;51.536;3.816;2024-03-29T18:54:54;12.70;99.90
48686;DHT22;34485;51.536;3.816;2024-03-29T18:57:21;12.60;99.90
48686;DHT22;34485;51.536;3.816;2024-03-29T18:59:47;12.60;99.90
48686;DHT22;34485;51.536;3.816;2024-03-29T19:02:13;12.50;99.90
48686;DHT22;34485;51.536;3.816;2024-03-29T19:04:38;12.50;99.90
48686;DHT22;34485;51.536;3.816;2024-03-29T19:07:07;12.40;99.90
48686;DHT22;34485;51.536;3.816;2024-03-29T19:09:32;12.30;99.90
48686;DHT22;34485;51.536;3.816;2024-03-29T19:11:58;12.30;99.90
48686;DHT22;34485;51.536;3.816;2024-03-29T19:14:24;12.20;99.90
48686;DHT22;34485;51.536;3.816;2024-03-29T19:16:50;12.20;99.90
48686;DHT22;34485;51.536;3.816;2024-03-29T19:19:17;12.10;99.90
48686;DHT22;34485;51.536;3.816;2024-03-29T19:21:47;12.10;99.90
48686;DHT22;34485;51.536;3.816;2024-03-29T19:24:14;12.10;99.90
48686;DHT22;34485;51.536;3.816;2024-03-29T19:26:40;12.10;99.90
48686;DHT22;34485;51.536;3.816;2024-03-29T19:29:07;12.10;99.90
48686;DHT22;34485;51.536;3.816;2024-03-29T19:31:33;12.10;99.90
48686;DHT22;34485;51.536;3.816;2024-03-29T19:33:59;12.00;99.90
48686;DHT22;34485;51.536;3.816;2024-03-29T19:36:25;12.00;99.90
48686;DHT22;34485;51.536;3.816;2024-03-29T19:38:51;12.00;99.90
48686;DHT22;34485;51.536;3.816;2024-03-29T19:41:16;12.00;99.90
48686;DHT22;34485;51.536;3.816;2024-03-29T19:43:42;12.00;99.90
48686;DHT22;34485;51.536;3.816;2024-03-29T19:46:08;12.10;99.90
48686;DHT22;34485;51.536;3.816;2024-03-29T19:48:33;12.00;99.90
48686;DHT22;34485;51.536;3.816;2024-03-29T19:51:00;12.10;99.90
48686;DHT22;34485;51.536;3.816;2024-03-29T19:53:26;12.00;99.90
48686;DHT22;34485;51.536;3.816;2024-03-29T19:55:53;12.00;99.90
48686;DHT22;34485;51.536;3.816;2024-03-29T19:58:21;12.00;99.90
48686;DHT22;34485;51.536;3.816;2024-03-29T20:00:46;12.10;99.90
48686;DHT22;34485;51.536;3.816;2024-03-29T20:03:13;12.00;99.90
48686;DHT22;34485;51.536;3.816;2024-03-29T20:05:41;12.10;99.90
48686;DHT22;34485;51.536;3.816;2024-03-29T20:08:07;12.00;99.90
48686;DHT22;34485;51.536;3.816;2024-03-29T20:10:38;12.10;99.90
48686;DHT22;34485;51.536;3.816;2024-03-29T20:13:06;12.00;99.90
48686;DHT22;34485;51.536;3.816;2024-03-29T20:15:39;12.10;99.90
48686;DHT22;34485;51.536;3.816;2024-03-29T20:18:06;12.00;99.90
48686;DHT22;34485;51.536;3.816;2024-03-29T20:20:32;12.10;99.90
48686;DHT22;34485;51.536;3.816;2024-03-29T20:22:58;12.10;99.90
48686;DHT22;34485;51.536;3.816;2024-03-29T20:25:25;12.10;99.90
48686;DHT22;34485;51.536;3.816;2024-03-29T20:27:51;12.10;99.90
48686;DHT22;34485;51.536;3.816;2024-03-29T20:30:17;12.10;99.90
48686;DHT22;34485;51.536;3.816;2024-03-29T20:32:47;12.10;99.90
48686;DHT22;34485;51.536;3.816;2024-03-29T20:35:13;12.00;99.90
48686;DHT22;34485;51.536;3.816;2024-03-29T20:37:42;12.00;99.90